Crane Gaia — 3FXX2 — position and weather

sailwx.info

Track history (hours):
 
Tides and Currents Weather Stations Pressure Air Temp Water Temp Dewpoint Dewpoint Depression Visibility Wind Speed Wind Dir Waves Ship Positions

Crane Gaia

Last reported at 2016-May-17 06:23 UTC. Time now 2016-May-31 05:49 UTC.
Position N 22°36' E 119°48'.
Warning: this ship's position is 13 days out of date.

Length 115 m; draft 4.9 m.

Type: Tanker. MMSI: 352461000.

Date/timePositionNaut miles runAvg speedWind from/ knotsBaromVisibWave heightAir tempDewpointWater temp
2016-May-17 06:23N 22°36' E 119°48'1213.5
2016-May-17 05:30N 22°47' E 119°53'48112.3
2016-May-15 14:25N 30°32' E 122°09'1415.5
2016-May-15 13:29N 30°30' E 121°53'1414.8
2016-May-15 12:33N 30°30' E 121°37'1413.9
2016-May-15 11:33N 30°33' E 121°21'9 8.7
2016-May-15 10:33N 30°40' E 121°27'6 5.5
2016-May-15 09:32N 30°46' E 121°27'0 0.0
2016-May-15 08:32N 30°46' E 121°27'0 0.0
2016-May-15 07:29N 30°46' E 121°27'0 0.0
2016-May-15 06:32N 30°46' E 121°27'0 0.0
2016-May-15 05:26N 30°46' E 121°27'0 0.0
2016-May-15 04:32N 30°46' E 121°27'0 0.0
2016-May-15 03:32N 30°46' E 121°27'0 0.0
2016-May-15 02:32N 30°46' E 121°27'0 0.0
2016-May-15 01:32N 30°46' E 121°27'0 0.0
2016-May-15 00:32N 30°46' E 121°27'0 0.0
2016-May-14 23:29N 30°46' E 121°27'0 0.0
2016-May-14 22:32N 30°46' E 121°27'0 0.0
2016-May-14 21:32N 30°46' E 121°27'0 0.0
2016-May-14 20:32N 30°46' E 121°27'0 0.0
2016-May-14 19:32N 30°46' E 121°27'0 0.0
2016-May-14 18:23N 30°46' E 121°27'0 0.0
2016-May-14 17:32N 30°46' E 121°27'0 0.0
2016-May-14 16:26N 30°46' E 121°27'0 0.0
2016-May-14 15:26N 30°46' E 121°27'0 0.0
2016-May-14 14:23N 30°46' E 121°27'0 0.0
2016-May-14 13:26N 30°46' E 121°27'0 0.0
2016-May-14 12:20N 30°46' E 121°27'0 0.0
2016-May-14 11:32N 30°46' E 121°27'0 0.0
2016-May-14 08:32N 30°46' E 121°27'0 0.0
2016-May-14 07:26N 30°46' E 121°27'0 0.0
2016-May-14 06:29N 30°46' E 121°27'0 0.0
2016-May-14 05:32N 30°46' E 121°27'0 0.0
2016-May-14 04:32N 30°46' E 121°27'0 0.0
2016-May-14 03:14N 30°46' E 121°27'0 0.0
2016-May-14 02:32N 30°46' E 121°27'0 0.0
2016-May-14 01:32N 30°46' E 121°27'0 0.0
2016-May-14 00:26N 30°46' E 121°27'0 0.0
2016-May-13 23:08N 30°46' E 121°27'0 0.0
2016-May-13 22:32N 30°46' E 121°27'0 0.0
2016-May-13 21:32N 30°46' E 121°27'0 0.0
2016-May-13 20:32N 30°46' E 121°27'0 0.0
2016-May-13 19:32N 30°46' E 121°27'0 0.0
2016-May-13 18:23N 30°46' E 121°27'0 0.0
2016-May-13 17:32N 30°46' E 121°27'0 0.0
2016-May-13 16:32N 30°46' E 121°27'0 0.0
2016-May-13 15:29N 30°46' E 121°27'0 0.0
2016-May-13 14:32N 30°46' E 121°27'0 0.0
2016-May-13 13:26N 30°46' E 121°27'0 0.0
2016-May-13 12:32N 30°46' E 121°27'0 0.0
2016-May-13 11:29N 30°46' E 121°27'0 0.0
2016-May-13 10:32N 30°46' E 121°27'0 0.0
2016-May-13 09:32N 30°46' E 121°27'0 0.0
2016-May-13 08:32N 30°46' E 121°27'0 0.0
2016-May-13 07:21N 30°46' E 121°27'5 5.7
2016-May-13 06:33N 30°42' E 121°28'8 3.7
2016-May-13 04:32N 30°37' E 121°21'0 0.1
2016-May-13 03:32N 30°37' E 121°21'0 0.0
2016-May-13 02:32N 30°37' E 121°21'0 0.0
2016-May-13 01:29N 30°37' E 121°21'0 0.0
2016-May-13 00:32N 30°37' E 121°21'0 0.0
2016-May-12 23:26N 30°37' E 121°21'0 0.1
2016-May-12 22:32N 30°37' E 121°21'0 0.0
2016-May-12 21:17N 30°37' E 121°21'0 0.1
2016-May-12 20:26N 30°37' E 121°21'0 0.0
2016-May-12 19:26N 30°37' E 121°21'0 0.0
2016-May-12 18:32N 30°37' E 121°21'0 0.0
2016-May-12 17:14N 30°37' E 121°21'0 0.0
2016-May-12 16:26N 30°37' E 121°21'0 0.1
2016-May-12 15:32N 30°37' E 121°21'0 0.1
2016-May-12 14:08N 30°37' E 121°21'0 0.0
2016-May-12 10:29N 30°37' E 121°21'0 0.1
2016-May-12 09:29N 30°37' E 121°21'0 0.1
2016-May-12 08:26N 30°37' E 121°21'0 0.0
2016-May-12 07:32N 30°37' E 121°21'0 0.0
2016-May-12 06:32N 30°37' E 121°21'0 0.1
2016-May-12 05:32N 30°37' E 121°21'0 0.1
2016-May-12 04:32N 30°37' E 121°21'0 0.1
2016-May-12 03:20N 30°37' E 121°21'0 0.0
2016-May-12 02:32N 30°37' E 121°21'0 0.0
2016-May-11 22:29N 30°37' E 121°21'0 0.0
2016-May-11 21:29N 30°37' E 121°21'0 0.1
2016-May-11 20:29N 30°37' E 121°21'0 0.1
2016-May-11 19:29N 30°37' E 121°21'0 0.0
2016-May-11 18:32N 30°37' E 121°21'0 0.0
2016-May-11 17:32N 30°37' E 121°21'0 0.0
2016-May-11 16:29N 30°37' E 121°21'0 0.0
2016-May-11 15:29N 30°37' E 121°21'0 0.2
2016-May-11 14:32N 30°37' E 121°21'0 0.1
2016-May-11 13:32N 30°37' E 121°21'0 0.0
2016-May-11 11:23N 30°37' E 121°21'0 0.1
2016-May-11 10:23N 30°37' E 121°21'0 0.0
2016-May-11 09:29N 30°37' E 121°21'0 0.1
2016-May-11 08:26N 30°37' E 121°21'0 0.1
2016-May-11 07:32N 30°37' E 121°21'0 0.0
2016-May-11 06:29N 30°37' E 121°21'0 0.0
2016-May-11 05:32N 30°37' E 121°21'0 0.0
2016-May-11 04:32N 30°37' E 121°21'0 0.0
2016-May-11 03:32N 30°37' E 121°21'0 0.1
2016-May-11 02:17N 30°37' E 121°21'0 0.0
2016-May-11 01:32N 30°37' E 121°21'0 0.0
2016-May-11 00:32N 30°37' E 121°21'0 0.0
2016-May-10 23:32N 30°37' E 121°21'0 0.0
2016-May-10 22:29N 30°37' E 121°21'0 0.0
2016-May-10 21:17N 30°37' E 121°21'0 0.0
2016-May-10 20:08N 30°37' E 121°21'0 0.2
2016-May-10 19:29N 30°37' E 121°21'0 0.0
2016-May-10 18:18N 30°37' E 121°21'0 0.0
2016-May-10 17:32N 30°37' E 121°21'0 0.0
2016-May-10 16:29N 30°37' E 121°21'0 0.1
2016-May-10 15:32N 30°37' E 121°21'0 0.1
2016-May-10 13:29N 30°37' E 121°21'0 0.1
2016-May-10 12:32N 30°37' E 121°21'0 0.0
2016-May-10 11:32N 30°37' E 121°21'0 0.0
2016-May-10 10:29N 30°37' E 121°21'0 0.0
2016-May-10 09:32N 30°37' E 121°21'0 0.1
2016-May-10 08:32N 30°37' E 121°21'0 0.0
2016-May-10 07:32N 30°37' E 121°21'0 0.1
2016-May-10 06:32N 30°37' E 121°21'0 0.0
2016-May-10 05:32N 30°37' E 121°21'3 3.4
2016-May-10 04:33N 30°34' E 121°22'1515.2
2016-May-10 03:33N 30°30' E 121°40'1414.1
2016-May-10 02:33N 30°31' E 121°56'1313.5
2016-May-10 01:33N 30°34' E 122°11'  
Track history (hours):
 
Tides and Currents Weather Stations Pressure Air Temp Water Temp Dewpoint Dewpoint Depression Visibility Wind Speed Wind Dir Waves Ship Positions

Crane Gaia

Last reported at 2016-May-17 06:23 UTC. Time now 2016-May-31 05:49 UTC.
Position N 22°36' E 119°48'.
Warning: this ship's position is 13 days out of date.

Length 115 m; draft 4.9 m.

Type: Tanker. MMSI: 352461000.

Date/timePositionNaut miles runAvg speedWind from/ knotsBaromVisibWave heightAir tempDewpointWater temp
2016-May-17 06:23N 22°36' E 119°48'1213.5
2016-May-17 05:30N 22°47' E 119°53'48112.3
2016-May-15 14:25N 30°32' E 122°09'1415.5
2016-May-15 13:29N 30°30' E 121°53'1414.8
2016-May-15 12:33N 30°30' E 121°37'1413.9
2016-May-15 11:33N 30°33' E 121°21'9 8.7
2016-May-15 10:33N 30°40' E 121°27'6 5.5
2016-May-15 09:32N 30°46' E 121°27'0 0.0
2016-May-15 08:32N 30°46' E 121°27'0 0.0
2016-May-15 07:29N 30°46' E 121°27'0 0.0
2016-May-15 06:32N 30°46' E 121°27'0 0.0
2016-May-15 05:26N 30°46' E 121°27'0 0.0
2016-May-15 04:32N 30°46' E 121°27'0 0.0
2016-May-15 03:32N 30°46' E 121°27'0 0.0
2016-May-15 02:32N 30°46' E 121°27'0 0.0
2016-May-15 01:32N 30°46' E 121°27'0 0.0
2016-May-15 00:32N 30°46' E 121°27'0 0.0
2016-May-14 23:29N 30°46' E 121°27'0 0.0
2016-May-14 22:32N 30°46' E 121°27'0 0.0
2016-May-14 21:32N 30°46' E 121°27'0 0.0
2016-May-14 20:32N 30°46' E 121°27'0 0.0
2016-May-14 19:32N 30°46' E 121°27'0 0.0
2016-May-14 18:23N 30°46' E 121°27'0 0.0
2016-May-14 17:32N 30°46' E 121°27'0 0.0
2016-May-14 16:26N 30°46' E 121°27'0 0.0
2016-May-14 15:26N 30°46' E 121°27'0 0.0
2016-May-14 14:23N 30°46' E 121°27'0 0.0
2016-May-14 13:26N 30°46' E 121°27'0 0.0
2016-May-14 12:20N 30°46' E 121°27'0 0.0
2016-May-14 11:32N 30°46' E 121°27'0 0.0
2016-May-14 08:32N 30°46' E 121°27'0 0.0
2016-May-14 07:26N 30°46' E 121°27'0 0.0
2016-May-14 06:29N 30°46' E 121°27'0 0.0
2016-May-14 05:32N 30°46' E 121°27'0 0.0
2016-May-14 04:32N 30°46' E 121°27'0 0.0
2016-May-14 03:14N 30°46' E 121°27'0 0.0
2016-May-14 02:32N 30°46' E 121°27'0 0.0
2016-May-14 01:32N 30°46' E 121°27'0 0.0
2016-May-14 00:26N 30°46' E 121°27'0 0.0
2016-May-13 23:08N 30°46' E 121°27'0 0.0
2016-May-13 22:32N 30°46' E 121°27'0 0.0
2016-May-13 21:32N 30°46' E 121°27'0 0.0
2016-May-13 20:32N 30°46' E 121°27'0 0.0
2016-May-13 19:32N 30°46' E 121°27'0 0.0
2016-May-13 18:23N 30°46' E 121°27'0 0.0
2016-May-13 17:32N 30°46' E 121°27'0 0.0
2016-May-13 16:32N 30°46' E 121°27'0 0.0
2016-May-13 15:29N 30°46' E 121°27'0 0.0
2016-May-13 14:32N 30°46' E 121°27'0 0.0
2016-May-13 13:26N 30°46' E 121°27'0 0.0
2016-May-13 12:32N 30°46' E 121°27'0 0.0
2016-May-13 11:29N 30°46' E 121°27'0 0.0
2016-May-13 10:32N 30°46' E 121°27'0 0.0
2016-May-13 09:32N 30°46' E 121°27'0 0.0
2016-May-13 08:32N 30°46' E 121°27'0 0.0
2016-May-13 07:21N 30°46' E 121°27'5 5.7
2016-May-13 06:33N 30°42' E 121°28'8 3.7
2016-May-13 04:32N 30°37' E 121°21'0 0.1
2016-May-13 03:32N 30°37' E 121°21'0 0.0
2016-May-13 02:32N 30°37' E 121°21'0 0.0
2016-May-13 01:29N 30°37' E 121°21'0 0.0
2016-May-13 00:32N 30°37' E 121°21'0 0.0
2016-May-12 23:26N 30°37' E 121°21'0 0.1
2016-May-12 22:32N 30°37' E 121°21'0 0.0
2016-May-12 21:17N 30°37' E 121°21'0 0.1
2016-May-12 20:26N 30°37' E 121°21'0 0.0
2016-May-12 19:26N 30°37' E 121°21'0 0.0
2016-May-12 18:32N 30°37' E 121°21'0 0.0
2016-May-12 17:14N 30°37' E 121°21'0 0.0
2016-May-12 16:26N 30°37' E 121°21'0 0.1
2016-May-12 15:32N 30°37' E 121°21'0 0.1
2016-May-12 14:08N 30°37' E 121°21'0 0.0
2016-May-12 10:29N 30°37' E 121°21'0 0.1
2016-May-12 09:29N 30°37' E 121°21'0 0.1
2016-May-12 08:26N 30°37' E 121°21'0 0.0
2016-May-12 07:32N 30°37' E 121°21'0 0.0
2016-May-12 06:32N 30°37' E 121°21'0 0.1
2016-May-12 05:32N 30°37' E 121°21'0 0.1
2016-May-12 04:32N 30°37' E 121°21'0 0.1
2016-May-12 03:20N 30°37' E 121°21'0 0.0
2016-May-12 02:32N 30°37' E 121°21'0 0.0
2016-May-11 22:29N 30°37' E 121°21'0 0.0
2016-May-11 21:29N 30°37' E 121°21'0 0.1
2016-May-11 20:29N 30°37' E 121°21'0 0.1
2016-May-11 19:29N 30°37' E 121°21'0 0.0
2016-May-11 18:32N 30°37' E 121°21'0 0.0
2016-May-11 17:32N 30°37' E 121°21'0 0.0
2016-May-11 16:29N 30°37' E 121°21'0 0.0
2016-May-11 15:29N 30°37' E 121°21'0 0.2
2016-May-11 14:32N 30°37' E 121°21'0 0.1
2016-May-11 13:32N 30°37' E 121°21'0 0.0
2016-May-11 11:23N 30°37' E 121°21'0 0.1
2016-May-11 10:23N 30°37' E 121°21'0 0.0
2016-May-11 09:29N 30°37' E 121°21'0 0.1
2016-May-11 08:26N 30°37' E 121°21'0 0.1
2016-May-11 07:32N 30°37' E 121°21'0 0.0
2016-May-11 06:29N 30°37' E 121°21'0 0.0
2016-May-11 05:32N 30°37' E 121°21'0 0.0
2016-May-11 04:32N 30°37' E 121°21'0 0.0
2016-May-11 03:32N 30°37' E 121°21'0 0.1
2016-May-11 02:17N 30°37' E 121°21'0 0.0
2016-May-11 01:32N 30°37' E 121°21'0 0.0
2016-May-11 00:32N 30°37' E 121°21'0 0.0
2016-May-10 23:32N 30°37' E 121°21'0 0.0
2016-May-10 22:29N 30°37' E 121°21'0 0.0
2016-May-10 21:17N 30°37' E 121°21'0 0.0
2016-May-10 20:08N 30°37' E 121°21'0 0.2
2016-May-10 19:29N 30°37' E 121°21'0 0.0
2016-May-10 18:18N 30°37' E 121°21'0 0.0
2016-May-10 17:32N 30°37' E 121°21'0 0.0
2016-May-10 16:29N 30°37' E 121°21'0 0.1
2016-May-10 15:32N 30°37' E 121°21'0 0.1
2016-May-10 13:29N 30°37' E 121°21'0 0.1
2016-May-10 12:32N 30°37' E 121°21'0 0.0
2016-May-10 11:32N 30°37' E 121°21'0 0.0
2016-May-10 10:29N 30°37' E 121°21'0 0.0
2016-May-10 09:32N 30°37' E 121°21'0 0.1
2016-May-10 08:32N 30°37' E 121°21'0 0.0
2016-May-10 07:32N 30°37' E 121°21'0 0.1
2016-May-10 06:32N 30°37' E 121°21'0 0.0
2016-May-10 05:32N 30°37' E 121°21'3 3.4
2016-May-10 04:33N 30°34' E 121°22'1515.2
2016-May-10 03:33N 30°30' E 121°40'1414.1
2016-May-10 02:33N 30°31' E 121°56'1313.5
2016-May-10 01:33N 30°34' E 122°11'  

Dump ship's entire track history